Time;durP1;ratioP1;P1;durP2;ratioP2;P2;SDS_P1;SDS_P2;PMS_P1;PMS_P2;Temp;Humidity;BMP_temperature;BMP_pressure;BME280_temperature;BME280_humidity;BME280_pressure;Samples;Min_cycle;Max_cycle;Signal;HPM_P1;HPM_P2
2022/07/02 00:02:11;;;;;;;2.97;2.25;;;;;;;;;;4991052;28;20424;-61
2022/07/02 00:04:40;;;;;;;2.60;2.13;;;;;;;;;;4991213;28;20428;-60
2022/07/02 00:07:05;;;;;;;2.60;2.03;;;;;;;;;;4973010;28;20035;-63
2022/07/02 00:09:31;;;;;;;3.03;2.22;;;;;;;;;;4990672;28;20459;-61
2022/07/02 00:11:59;;;;;;;2.72;2.08;;;;;;;;;;4991160;28;20486;-61
2022/07/02 00:14:25;;;;;;;4.85;2.22;;;;;;;;;;4991165;28;20383;-61
2022/07/02 00:16:53;;;;;;;2.00;1.80;;;;;;;;;;4973139;28;20412;-61
2022/07/02 00:19:18;;;;;;;4.82;2.00;;;;;;;;;;4990950;28;20107;-63
2022/07/02 00:21:44;;;;;;;2.65;2.20;;;;;;;;;;4972929;28;20454;-61
2022/07/02 00:24:09;;;;;;;2.97;1.85;;;;;;;;;;4972902;28;20343;-61
2022/07/02 00:26:38;;;;;;;2.70;2.00;;;;;;;;;;4973401;28;20328;-61
2022/07/02 00:29:34;;;;;;;2.45;2.10;;;;;;;;;;4990885;28;20028;-61
2022/07/02 00:32:00;;;;;;;2.20;1.80;;;;;;;;;;4983858;28;20452;-61
2022/07/02 00:34:26;;;;;;;3.80;1.80;;;;;;;;;;4972794;28;20503;-62
2022/07/02 00:36:51;;;;;;;2.83;1.67;;;;;;;;;;4990633;28;20167;-61
2022/07/02 00:39:17;;;;;;;2.95;1.95;;;;;;;;;;4990739;28;20060;-61
2022/07/02 00:41:43;;;;;;;4.35;2.10;;;;;;;;;;4990717;28;20458;-61
2022/07/02 00:44:09;;;;;;;3.35;1.98;;;;;;;;;;4990293;28;20032;-61
2022/07/02 00:46:36;;;;;;;2.47;1.88;;;;;;;;;;4973106;28;20098;-61
2022/07/02 00:49:01;;;;;;;2.00;1.80;;;;;;;;;;4991298;28;20404;-61
2022/07/02 00:51:28;;;;;;;2.58;2.00;;;;;;;;;;4990256;28;20309;-62
2022/07/02 00:53:54;;;;;;;2.08;1.80;;;;;;;;;;4990393;28;20444;-61
2022/07/02 00:56:19;;;;;;;3.08;1.70;;;;;;;;;;4990449;28;20337;-61
2022/07/02 00:58:45;;;;;;;2.75;1.63;;;;;;;;;;4991131;28;20084;-63
2022/07/02 01:01:11;;;;;;;2.47;1.70;;;;;;;;;;4983914;28;20436;-61
2022/07/02 01:03:37;;;;;;;2.20;1.55;;;;;;;;;;4978512;28;20436;-61
2022/07/02 01:06:03;;;;;;;2.47;2.08;;;;;;;;;;4970215;28;20049;-61
2022/07/02 01:11:13;;;;;;;5.53;2.13;;;;;;;;;;4956108;28;20573;-63
2022/07/02 01:13:39;;;;;;;3.40;1.90;;;;;;;;;;4970140;28;20452;-61
2022/07/02 01:16:04;;;;;;;5.20;1.80;;;;;;;;;;4970133;28;20354;-61
2022/07/02 01:18:30;;;;;;;3.08;2.08;;;;;;;;;;4969786;28;20022;-61
2022/07/02 01:20:55;;;;;;;2.67;1.65;;;;;;;;;;4970553;28;20344;-60
2022/07/02 01:23:21;;;;;;;2.70;1.70;;;;;;;;;;4969763;28;20364;-62
2022/07/02 01:25:50;;;;;;;4.18;1.80;;;;;;;;;;4971737;28;20328;-61
2022/07/02 01:28:16;;;;;;;2.53;2.05;;;;;;;;;;4969922;28;20348;-61
2022/07/02 01:30:41;;;;;;;6.15;2.00;;;;;;;;;;4969800;28;20322;-61
2022/07/02 01:33:07;;;;;;;2.25;1.52;;;;;;;;;;4969616;28;20496;-61
2022/07/02 01:35:32;;;;;;;2.80;1.90;;;;;;;;;;4952114;28;20353;-61
2022/07/02 01:38:00;;;;;;;3.53;1.70;;;;;;;;;;4969853;28;20103;-61
2022/07/02 01:40:25;;;;;;;2.35;1.83;;;;;;;;;;4969837;28;20435;-61
2022/07/02 01:42:50;;;;;;;2.70;2.00;;;;;;;;;;4970084;28;20029;-61
2022/07/02 01:45:16;;;;;;;3.40;2.15;;;;;;;;;;4969817;28;20420;-62
2022/07/02 01:47:41;;;;;;;3.80;1.80;;;;;;;;;;4982897;28;20470;-61
2022/07/02 01:50:07;;;;;;;1.95;1.60;;;;;;;;;;4988672;28;20386;-61
2022/07/02 01:52:33;;;;;;;3.70;1.92;;;;;;;;;;4989680;28;20390;-61
2022/07/02 01:54:58;;;;;;;3.05;2.10;;;;;;;;;;4989396;28;20455;-61
2022/07/02 01:57:24;;;;;;;2.55;1.85;;;;;;;;;;4988869;28;20037;-61
2022/07/02 01:59:49;;;;;;;1.92;1.70;;;;;;;;;;4989209;28;20388;-61
2022/07/02 02:02:15;;;;;;;3.28;1.80;;;;;;;;;;4989166;28;20420;-60
2022/07/02 02:04:40;;;;;;;2.97;2.15;;;;;;;;;;5004049;28;20360;-60
2022/07/02 02:07:06;;;;;;;2.83;2.20;;;;;;;;;;4989267;28;20044;-61
2022/07/02 02:09:32;;;;;;;2.28;1.95;;;;;;;;;;4988768;28;20028;-63
2022/07/02 02:11:58;;;;;;;3.65;2.00;;;;;;;;;;4988978;28;20064;-61
2022/07/02 02:14:23;;;;;;;3.72;1.92;;;;;;;;;;4989639;28;20415;-61
2022/07/02 02:16:49;;;;;;;2.60;2.17;;;;;;;;;;4988546;28;20447;-61
2022/07/02 02:19:14;;;;;;;2.28;2.08;;;;;;;;;;4989495;28;20344;-61
2022/07/02 02:21:40;;;;;;;7.25;2.40;;;;;;;;;;4989703;28;20332;-60
2022/07/02 02:24:05;;;;;;;2.47;1.98;;;;;;;;;;4999088;28;20554;-61
2022/07/02 02:26:31;;;;;;;2.83;2.08;;;;;;;;;;5008475;28;20419;-61
2022/07/02 02:28:56;;;;;;;2.88;2.45;;;;;;;;;;5008772;28;20335;-60
2022/07/02 02:31:22;;;;;;;2.58;2.25;;;;;;;;;;5008725;28;20419;-61
2022/07/02 02:33:48;;;;;;;3.35;2.08;;;;;;;;;;5008698;28;20128;-61
2022/07/02 02:36:13;;;;;;;4.05;2.60;;;;;;;;;;5008212;28;20320;-61
2022/07/02 02:38:38;;;;;;;2.10;1.90;;;;;;;;;;5008303;28;20401;-61
2022/07/02 02:41:07;;;;;;;2.40;2.17;;;;;;;;;;5008418;28;20421;-62
2022/07/02 02:43:33;;;;;;;5.40;2.40;;;;;;;;;;5008313;28;20111;-61
2022/07/02 02:46:00;;;;;;;2.38;2.17;;;;;;;;;;5008144;28;20394;-61
2022/07/02 02:48:25;;;;;;;3.03;2.65;;;;;;;;;;5009895;28;20778;-61
2022/07/02 02:50:51;;;;;;;2.90;2.30;;;;;;;;;;5008160;28;20390;-61
2022/07/02 02:53:16;;;;;;;3.75;2.00;;;;;;;;;;5008685;28;20367;-61
2022/07/02 02:55:42;;;;;;;2.92;2.05;;;;;;;;;;5009127;28;20424;-61
2022/07/02 02:58:08;;;;;;;2.88;1.90;;;;;;;;;;5008162;28;20393;-62
2022/07/02 03:00:33;;;;;;;2.10;1.85;;;;;;;;;;5008370;28;20423;-61
2022/07/02 03:02:59;;;;;;;2.33;2.00;;;;;;;;;;5008191;28;20439;-61
2022/07/02 03:05:24;;;;;;;2.55;1.80;;;;;;;;;;4990691;28;20382;-61
2022/07/02 03:07:50;;;;;;;3.03;2.00;;;;;;;;;;5007973;28;20078;-61
2022/07/02 03:10:15;;;;;;;2.22;2.03;;;;;;;;;;5009455;28;20020;-61
2022/07/02 03:12:41;;;;;;;3.88;1.92;;;;;;;;;;5012572;28;20470;-62
2022/07/02 03:15:07;;;;;;;2.50;2.00;;;;;;;;;;5013075;28;20446;-61
2022/07/02 03:17:32;;;;;;;4.72;2.22;;;;;;;;;;5011829;28;20427;-62
2022/07/02 03:19:58;;;;;;;4.10;2.42;;;;;;;;;;5011784;28;20024;-61
2022/07/02 03:22:23;;;;;;;1.90;1.70;;;;;;;;;;5011860;28;20411;-61
2022/07/02 03:24:49;;;;;;;2.47;1.90;;;;;;;;;;5011179;28;20463;-65
2022/07/02 03:27:14;;;;;;;2.63;1.90;;;;;;;;;;5011687;28;20636;-61
2022/07/02 03:29:39;;;;;;;2.00;1.52;;;;;;;;;;5011382;28;20457;-61
2022/07/02 03:32:05;;;;;;;2.10;1.77;;;;;;;;;;5011602;28;20111;-61
2022/07/02 03:34:31;;;;;;;6.70;1.98;;;;;;;;;;5011538;28;20431;-61
2022/07/02 03:36:56;;;;;;;4.47;1.90;;;;;;;;;;5012036;28;20365;-61
2022/07/02 03:39:21;;;;;;;1.92;1.73;;;;;;;;;;5011453;28;20411;-64
2022/07/02 03:41:47;;;;;;;2.00;1.70;;;;;;;;;;5011613;28;20079;-61
2022/07/02 03:44:12;;;;;;;4.00;1.70;;;;;;;;;;5011427;28;20462;-60
2022/07/02 03:46:38;;;;;;;2.15;1.92;;;;;;;;;;5011452;28;20439;-62
2022/07/02 03:49:03;;;;;;;2.22;1.98;;;;;;;;;;5011207;28;20412;-62
2022/07/02 03:51:28;;;;;;;2.17;1.25;;;;;;;;;;5011301;28;20343;-62
2022/07/02 03:53:54;;;;;;;2.47;1.55;;;;;;;;;;5011118;28;20037;-61
2022/07/02 03:56:19;;;;;;;3.40;1.60;;;;;;;;;;5011342;28;20455;-61
2022/07/02 03:58:45;;;;;;;2.10;1.85;;;;;;;;;;5012236;28;20315;-61
2022/07/02 04:01:10;;;;;;;2.78;1.67;;;;;;;;;;5011310;28;20426;-61
2022/07/02 04:03:35;;;;;;;2.38;2.08;;;;;;;;;;5011269;28;20389;-61
2022/07/02 04:06:02;;;;;;;2.03;1.77;;;;;;;;;;5010854;28;20478;-61
2022/07/02 04:08:27;;;;;;;2.35;1.98;;;;;;;;;;5010999;28;20455;-61
2022/07/02 04:10:52;;;;;;;9.73;2.03;;;;;;;;;;5011616;28;20493;-61
2022/07/02 04:13:18;;;;;;;4.55;1.80;;;;;;;;;;5011274;28;20431;-62
2022/07/02 04:15:43;;;;;;;2.67;1.75;;;;;;;;;;5010876;28;20391;-62
2022/07/02 04:18:09;;;;;;;1.90;1.70;;;;;;;;;;4992843;28;20055;-61
2022/07/02 04:20:34;;;;;;;1.60;1.50;;;;;;;;;;5010517;28;20036;-61
2022/07/02 04:22:59;;;;;;;2.17;1.70;;;;;;;;;;5010465;28;20051;-61
2022/07/02 04:25:25;;;;;;;1.70;1.42;;;;;;;;;;5011041;28;20028;-61
2022/07/02 04:27:50;;;;;;;2.47;1.70;;;;;;;;;;5011423;28;20033;-60
2022/07/02 04:30:15;;;;;;;2.42;1.70;;;;;;;;;;5012411;28;20458;-61
2022/07/02 04:32:41;;;;;;;2.60;2.10;;;;;;;;;;5010837;28;20498;-61
2022/07/02 04:35:07;;;;;;;1.92;1.60;;;;;;;;;;5010509;28;20342;-61
2022/07/02 04:37:32;;;;;;;2.83;1.77;;;;;;;;;;5011402;28;20032;-61
2022/07/02 04:39:58;;;;;;;3.13;1.80;;;;;;;;;;5011385;28;20312;-63
2022/07/02 04:42:23;;;;;;;2.25;1.70;;;;;;;;;;5010675;28;20385;-61
2022/07/02 04:44:49;;;;;;;2.45;1.75;;;;;;;;;;5010408;28;21144;-61
2022/07/02 04:47:14;;;;;;;1.77;1.40;;;;;;;;;;5011177;28;20449;-62
2022/07/02 04:49:39;;;;;;;1.83;1.50;;;;;;;;;;5010064;28;20117;-60
2022/07/02 04:52:05;;;;;;;1.40;1.27;;;;;;;;;;5010413;28;20051;-62
2022/07/02 04:54:31;;;;;;;1.75;1.58;;;;;;;;;;5010435;28;20327;-62
2022/07/02 04:56:56;;;;;;;2.65;1.95;;;;;;;;;;5011775;28;20469;-61
2022/07/02 04:59:22;;;;;;;2.15;1.52;;;;;;;;;;4992118;28;20090;-60
2022/07/02 05:01:47;;;;;;;1.48;1.27;;;;;;;;;;5009810;28;20370;-61
2022/07/02 05:04:12;;;;;;;4.22;1.70;;;;;;;;;;5009897;28;20479;-60
2022/07/02 05:06:38;;;;;;;4.25;1.67;;;;;;;;;;5009951;28;20135;-61
2022/07/02 05:09:03;;;;;;;2.53;1.70;;;;;;;;;;5010121;28;20446;-61
2022/07/02 05:11:29;;;;;;;1.90;1.30;;;;;;;;;;5009419;28;20024;-61
2022/07/02 05:13:55;;;;;;;1.70;1.50;;;;;;;;;;5010294;28;20415;-62
2022/07/02 05:16:20;;;;;;;1.40;1.30;;;;;;;;;;5009271;28;20028;-62
2022/07/02 05:18:46;;;;;;;1.35;1.23;;;;;;;;;;5010115;28;20431;-61
2022/07/02 05:21:11;;;;;;;2.20;1.42;;;;;;;;;;4991586;28;20085;-61
2022/07/02 05:23:36;;;;;;;1.63;1.50;;;;;;;;;;5008861;28;20421;-61
2022/07/02 05:26:02;;;;;;;3.70;1.73;;;;;;;;;;5009956;28;20512;-61
2022/07/02 05:28:27;;;;;;;1.75;1.50;;;;;;;;;;4991714;28;20431;-62
2022/07/02 05:30:53;;;;;;;3.05;1.60;;;;;;;;;;5009611;28;20439;-63
2022/07/02 05:33:18;;;;;;;1.88;1.67;;;;;;;;;;5008585;28;20447;-61
2022/07/02 05:35:44;;;;;;;1.70;1.50;;;;;;;;;;5009409;28;20344;-61
2022/07/02 05:38:09;;;;;;;4.57;1.35;;;;;;;;;;5009143;28;20466;-61
2022/07/02 05:40:35;;;;;;;2.47;1.33;;;;;;;;;;5009208;28;20461;-61
2022/07/02 05:43:01;;;;;;;2.38;1.77;;;;;;;;;;5009170;28;20351;-61
2022/07/02 05:45:27;;;;;;;1.60;1.20;;;;;;;;;;5008777;28;20033;-61
2022/07/02 05:47:52;;;;;;;1.95;1.60;;;;;;;;;;5009087;28;20025;-61
2022/07/02 05:50:17;;;;;;;1.88;1.52;;;;;;;;;;5009177;28;20390;-61
2022/07/02 05:52:43;;;;;;;1.98;1.40;;;;;;;;;;5009052;28;20470;-61
2022/07/02 05:55:19;;;;;;;1.62;1.25;;;;;;;;;;3770939;28;10001491;-62
2022/07/02 05:57:44;;;;;;;1.30;1.20;;;;;;;;;;3684795;28;10001587;-61
2022/07/02 06:00:11;;;;;;;2.25;1.45;;;;;;;;;;5009153;28;20331;-60
2022/07/02 06:02:36;;;;;;;1.50;1.25;;;;;;;;;;5009209;28;20366;-61
2022/07/02 06:07:46;;;;;;;1.42;1.27;;;;;;;;;;5009231;28;20393;-61
2022/07/02 06:10:18;;;;;;;1.50;1.30;;;;;;;;;;5008712;28;20370;-63
2022/07/02 06:12:45;;;;;;;2.83;1.55;;;;;;;;;;5008643;28;20029;-61
2022/07/02 06:15:12;;;;;;;1.50;1.40;;;;;;;;;;5008902;28;20411;-61
2022/07/02 06:17:37;;;;;;;1.65;1.42;;;;;;;;;;5008333;28;20466;-61
2022/07/02 06:20:03;;;;;;;1.92;1.20;;;;;;;;;;5008963;28;20370;-62
2022/07/02 06:22:28;;;;;;;3.28;1.05;;;;;;;;;;5008603;28;20340;-60
2022/07/02 06:24:55;;;;;;;3.10;1.80;;;;;;;;;;5009325;28;20439;-61
2022/07/02 06:27:21;;;;;;;1.95;1.35;;;;;;;;;;5008911;28;20536;-60
2022/07/02 06:29:48;;;;;;;2.75;1.45;;;;;;;;;;5008870;28;20370;-61
2022/07/02 06:32:13;;;;;;;1.38;1.20;;;;;;;;;;4991136;28;20546;-60
2022/07/02 06:34:39;;;;;;;1.63;1.27;;;;;;;;;;5008406;28;20029;-61
2022/07/02 06:37:04;;;;;;;1.90;1.50;;;;;;;;;;5010087;28;20059;-61
2022/07/02 06:39:30;;;;;;;2.00;1.40;;;;;;;;;;5008735;28;20347;-63
2022/07/02 06:44:39;;;;;;;1.77;1.30;;;;;;;;;;5011430;28;20497;-61
2022/07/02 06:47:05;;;;;;;1.75;1.25;;;;;;;;;;5012237;28;20354;-62
2022/07/02 06:49:30;;;;;;;1.17;1.08;;;;;;;;;;5012583;28;20441;-62
2022/07/02 06:51:56;;;;;;;2.78;1.67;;;;;;;;;;5012608;28;20681;-61
2022/07/02 06:54:21;;;;;;;1.77;1.30;;;;;;;;;;5012119;28;20526;-61
2022/07/02 06:56:46;;;;;;;1.55;1.30;;;;;;;;;;5012573;28;20029;-61
2022/07/02 06:59:12;;;;;;;1.58;1.13;;;;;;;;;;5012125;28;20160;-61
2022/07/02 07:01:37;;;;;;;1.75;1.38;;;;;;;;;;5012455;28;20454;-62
2022/07/02 07:04:03;;;;;;;1.98;1.52;;;;;;;;;;5012171;28;20024;-61
2022/07/02 07:06:51;;;;;;;1.25;1.10;;;;;;;;;;5012849;28;20420;-62
2022/07/02 07:09:14;;;;;;;1.77;1.40;;;;;;;;;;5011097;28;20076;-62
2022/07/02 07:11:39;;;;;;;1.90;1.40;;;;;;;;;;5011984;28;20102;-60
2022/07/02 07:14:05;;;;;;;1.65;1.33;;;;;;;;;;5012944;28;20067;-62
2022/07/02 07:16:30;;;;;;;1.58;1.13;;;;;;;;;;5012083;28;20419;-62
2022/07/02 07:21:23;;;;;;;1.38;1.23;;;;;;;;;;5012081;28;20451;-61
2022/07/02 07:23:49;;;;;;;2.10;1.30;;;;;;;;;;5011930;28;20411;-62
2022/07/02 07:26:14;;;;;;;3.53;1.40;;;;;;;;;;5012129;28;20334;-61
2022/07/02 07:28:39;;;;;;;1.50;1.35;;;;;;;;;;5011837;28;20417;-61
2022/07/02 07:31:05;;;;;;;1.55;1.20;;;;;;;;;;5011989;28;20427;-61
2022/07/02 07:33:30;;;;;;;1.45;1.17;;;;;;;;;;5011725;28;20477;-63
2022/07/02 07:35:57;;;;;;;1.88;1.48;;;;;;;;;;5011182;28;20363;-61
2022/07/02 07:38:22;;;;;;;3.05;1.30;;;;;;;;;;4993661;28;20489;-60
2022/07/02 07:40:48;;;;;;;2.10;1.30;;;;;;;;;;5011343;28;20454;-63
2022/07/02 07:43:13;;;;;;;1.52;1.17;;;;;;;;;;5011180;28;20474;-61
2022/07/02 07:45:39;;;;;;;1.73;1.10;;;;;;;;;;5011339;28;20500;-62
2022/07/02 07:48:04;;;;;;;2.38;1.20;;;;;;;;;;5011248;28;20107;-62
2022/07/02 07:50:30;;;;;;;1.60;1.27;;;;;;;;;;5011632;28;20399;-60
2022/07/02 07:52:55;;;;;;;1.33;1.23;;;;;;;;;;5012046;28;20413;-61
2022/07/02 07:55:20;;;;;;;1.38;1.20;;;;;;;;;;5010847;28;20458;-61
2022/07/02 07:57:46;;;;;;;1.15;0.93;;;;;;;;;;5011497;28;20331;-60
2022/07/02 08:00:12;;;;;;;1.35;1.10;;;;;;;;;;5011721;28;20342;-61
2022/07/02 08:02:37;;;;;;;2.25;1.20;;;;;;;;;;5011181;28;20439;-61
2022/07/02 08:05:03;;;;;;;1.83;1.10;;;;;;;;;;5011080;28;21047;-61
2022/07/02 08:07:28;;;;;;;1.20;1.02;;;;;;;;;;5011718;28;20047;-61
2022/07/02 08:09:54;;;;;;;1.40;1.02;;;;;;;;;;5010952;28;20351;-61
2022/07/02 08:12:22;;;;;;;2.90;1.55;;;;;;;;;;5010781;28;20312;-60
2022/07/02 08:14:48;;;;;;;1.30;0.88;;;;;;;;;;5010732;28;20358;-61
2022/07/02 08:17:14;;;;;;;1.48;1.15;;;;;;;;;;5012216;28;20068;-61
2022/07/02 08:19:39;;;;;;;1.00;0.90;;;;;;;;;;5010432;28;20457;-61
2022/07/02 08:22:05;;;;;;;3.38;1.00;;;;;;;;;;5010764;28;20439;-61
2022/07/02 08:24:30;;;;;;;1.20;0.98;;;;;;;;;;5010453;28;20407;-61
2022/07/02 08:26:56;;;;;;;1.33;0.95;;;;;;;;;;5010722;28;20473;-60
2022/07/02 08:29:21;;;;;;;2.08;1.30;;;;;;;;;;5011184;28;20494;-61
2022/07/02 08:31:47;;;;;;;1.27;1.15;;;;;;;;;;5010651;28;20029;-61
2022/07/02 08:34:12;;;;;;;1.38;1.08;;;;;;;;;;5010405;28;20427;-61
2022/07/02 08:36:38;;;;;;;1.30;1.10;;;;;;;;;;5010485;28;20032;-62
2022/07/02 08:39:03;;;;;;;2.00;1.40;;;;;;;;;;5010675;28;20386;-61
2022/07/02 08:41:29;;;;;;;0.98;0.82;;;;;;;;;;5012198;28;20086;-61
2022/07/02 08:43:56;;;;;;;2.38;1.08;;;;;;;;;;5010568;28;20508;-62
2022/07/02 08:46:22;;;;;;;5.78;0.93;;;;;;;;;;5010166;28;20504;-60
2022/07/02 08:48:49;;;;;;;2.22;1.00;;;;;;;;;;4992289;28;20308;-61
2022/07/02 08:51:14;;;;;;;1.25;1.10;;;;;;;;;;4992916;28;20477;-61
2022/07/02 08:53:41;;;;;;;0.90;0.80;;;;;;;;;;5010374;28;20351;-61
2022/07/02 08:56:07;;;;;;;2.00;1.00;;;;;;;;;;4991925;28;20075;-61
2022/07/02 08:58:33;;;;;;;1.92;1.23;;;;;;;;;;5009751;28;20458;-61
2022/07/02 09:00:59;;;;;;;1.75;1.00;;;;;;;;;;4991693;28;20351;-61
2022/07/02 09:03:25;;;;;;;1.92;1.40;;;;;;;;;;5011448;28;20473;-61
2022/07/02 09:05:51;;;;;;;1.58;1.30;;;;;;;;;;4991851;28;20442;-61
2022/07/02 09:08:17;;;;;;;1.52;1.05;;;;;;;;;;5008523;28;20327;-61
2022/07/02 09:10:43;;;;;;;1.48;1.23;;;;;;;;;;5009902;28;20024;-61
2022/07/02 09:13:11;;;;;;;1.88;1.00;;;;;;;;;;4992415;28;20093;-61
2022/07/02 09:15:37;;;;;;;2.25;1.15;;;;;;;;;;5010478;28;20451;-60
2022/07/02 09:18:03;;;;;;;1.20;1.00;;;;;;;;;;5009523;28;20492;-61
2022/07/02 09:20:28;;;;;;;1.20;1.10;;;;;;;;;;5009322;28;20447;-61
2022/07/02 09:22:53;;;;;;;2.08;1.08;;;;;;;;;;5009520;28;20021;-61
2022/07/02 09:25:21;;;;;;;1.00;0.98;;;;;;;;;;5010341;28;20118;-68
2022/07/02 09:27:47;;;;;;;1.40;1.10;;;;;;;;;;5009637;28;20358;-61
2022/07/02 09:30:17;;;;;;;0.98;0.88;;;;;;;;;;5009733;28;20440;-61
2022/07/02 09:32:45;;;;;;;0.93;0.80;;;;;;;;;;5011221;28;20418;-61
2022/07/02 09:35:21;;;;;;;1.00;0.88;;;;;;;;;;5009795;28;20335;-61
2022/07/02 09:37:50;;;;;;;2.08;1.35;;;;;;;;;;5009028;28;20466;-61
2022/07/02 09:40:16;;;;;;;2.13;1.40;;;;;;;;;;5009196;28;20347;-62
2022/07/02 09:42:46;;;;;;;2.88;1.55;;;;;;;;;;5010184;28;20373;-61
2022/07/02 09:45:13;;;;;;;1.23;1.13;;;;;;;;;;5009995;28;20351;-61
2022/07/02 09:47:48;;;;;;;1.13;1.00;;;;;;;;;;5009049;28;20470;-64
2022/07/02 09:50:14;;;;;;;1.27;0.88;;;;;;;;;;5009753;28;20078;-61
2022/07/02 09:53:10;;;;;;;0.98;0.88;;;;;;;;;;5009296;28;20454;-61
2022/07/02 09:55:36;;;;;;;1.35;1.05;;;;;;;;;;5007302;28;20475;-61
2022/07/02 09:58:02;;;;;;;1.30;1.10;;;;;;;;;;5008908;28;20407;-62
2022/07/02 10:00:30;;;;;;;1.20;0.93;;;;;;;;;;5009271;28;20099;-61
2022/07/02 10:02:57;;;;;;;2.10;0.90;;;;;;;;;;5009122;28;20338;-61
2022/07/02 10:05:29;;;;;;;3.28;1.13;;;;;;;;;;5008946;28;20025;-61
2022/07/02 10:07:57;;;;;;;1.40;1.20;;;;;;;;;;5008737;28;20460;-62
2022/07/02 10:10:26;;;;;;;;;;;;;;;;;;4991242;28;20431;-61
2022/07/02 10:12:53;;;;;;;1.10;1.00;;;;;;;;;;5009369;28;20404;-61
2022/07/02 10:15:20;;;;;;;1.98;1.10;;;;;;;;;;4974223;28;20327;-61
2022/07/02 10:17:45;;;;;;;2.15;0.88;;;;;;;;;;4990783;28;20492;-61
2022/07/02 10:20:11;;;;;;;2.47;1.30;;;;;;;;;;4990715;28;20451;-61
2022/07/02 10:22:37;;;;;;;1.42;0.95;;;;;;;;;;4991317;28;20090;-61
2022/07/02 10:25:04;;;;;;;1.15;1.02;;;;;;;;;;5008405;28;20462;-61
2022/07/02 10:27:30;;;;;;;1.45;1.02;;;;;;;;;;4991350;28;20518;-62
2022/07/02 10:29:56;;;;;;;0.93;0.73;;;;;;;;;;4990910;28;20036;-63
2022/07/02 10:32:41;;;;;;;1.63;0.95;;;;;;;;;;4990551;28;20463;-61
2022/07/02 10:35:10;;;;;;;1.52;1.23;;;;;;;;;;4990275;28;20338;-62
2022/07/02 10:37:39;;;;;;;0.95;0.80;;;;;;;;;;4990253;28;20487;-61
2022/07/02 10:40:06;;;;;;;1.08;0.77;;;;;;;;;;4990451;28;20025;-61
2022/07/02 10:42:42;;;;;;;1.83;0.77;;;;;;;;;;5008307;28;20470;-61
2022/07/02 10:45:19;;;;;;;1.77;1.27;;;;;;;;;;5008325;28;20359;-61
2022/07/02 10:47:54;;;;;;;2.00;0.90;;;;;;;;;;5008291;28;20471;-61
2022/07/02 10:50:21;;;;;;;1.20;0.90;;;;;;;;;;5008461;28;20068;-61
2022/07/02 10:52:49;;;;;;;0.90;0.80;;;;;;;;;;4990081;28;20366;-61
2022/07/02 10:55:25;;;;;;;1.15;0.90;;;;;;;;;;5008523;28;20427;-61
2022/07/02 10:58:01;;;;;;;0.90;0.80;;;;;;;;;;5008553;28;20477;-61
2022/07/02 11:00:28;;;;;;;0.77;0.77;;;;;;;;;;4990220;28;20508;-61
2022/07/02 11:02:56;;;;;;;1.10;1.00;;;;;;;;;;5008546;28;20123;-61
2022/07/02 11:05:21;;;;;;;0.85;0.80;;;;;;;;;;5009029;28;20488;-61
2022/07/02 11:07:47;;;;;;;1.35;1.02;;;;;;;;;;5008122;28;20440;-61
2022/07/02 11:10:12;;;;;;;1.63;0.80;;;;;;;;;;5008448;28;20507;-62
2022/07/02 11:12:53;;;;;;;1.58;1.08;;;;;;;;;;5007906;28;20024;-61
2022/07/02 11:15:21;;;;;;;1.70;0.98;;;;;;;;;;5008498;28;20048;-61
2022/07/02 11:17:51;;;;;;;1.20;1.08;;;;;;;;;;4989812;28;20539;-62
2022/07/02 11:20:26;;;;;;;1.00;0.85;;;;;;;;;;5007933;28;20122;-61
2022/07/02 11:22:52;;;;;;;1.33;0.75;;;;;;;;;;5008141;28;20534;-62
2022/07/02 11:25:18;;;;;;;0.95;0.85;;;;;;;;;;5007720;28;20458;-61
2022/07/02 11:27:54;;;;;;;1.48;1.02;;;;;;;;;;5008256;28;20402;-61
2022/07/02 11:30:24;;;;;;;0.90;0.80;;;;;;;;;;5007967;28;20024;-62
2022/07/02 11:32:50;;;;;;;1.15;0.88;;;;;;;;;;5012786;28;20332;-62
2022/07/02 11:35:17;;;;;;;2.97;0.90;;;;;;;;;;5011806;28;20442;-62
2022/07/02 11:37:45;;;;;;;4.47;1.05;;;;;;;;;;5011678;28;20419;-62
2022/07/02 11:40:20;;;;;;;;;;;;;;;;;;5011709;28;20056;-61
2022/07/02 11:42:46;;;;;;;0.82;0.60;;;;;;;;;;5011260;28;20250;-61
2022/07/02 11:45:11;;;;;;;1.08;0.88;;;;;;;;;;5011399;28;20317;-62
2022/07/02 11:47:47;;;;;;;1.25;1.10;;;;;;;;;;5010930;28;20465;-63
2022/07/02 11:50:13;;;;;;;1.05;0.75;;;;;;;;;;5010881;28;20427;-62
2022/07/02 11:52:41;;;;;;;0.80;0.80;;;;;;;;;;5012068;28;20423;-61
2022/07/02 11:55:14;;;;;;;0.93;0.82;;;;;;;;;;5012930;28;20438;-62
2022/07/02 11:57:40;;;;;;;1.05;0.90;;;;;;;;;;5011183;28;20438;-61
2022/07/02 12:00:06;;;;;;;1.58;0.85;;;;;;;;;;5010946;28;20429;-61
2022/07/02 12:02:39;;;;;;;2.05;0.82;;;;;;;;;;5010903;28;20367;-61
2022/07/02 12:05:18;;;;;;;1.67;0.90;;;;;;;;;;5010868;28;20419;-61
2022/07/02 12:07:44;;;;;;;1.42;0.80;;;;;;;;;;5010864;28;20419;-61
2022/07/02 12:10:13;;;;;;;1.13;0.85;;;;;;;;;;5010829;28;20439;-62
2022/07/02 12:12:39;;;;;;;1.02;0.70;;;;;;;;;;5010714;28;20324;-61
2022/07/02 12:15:06;;;;;;;0.90;0.70;;;;;;;;;;5011557;28;20024;-62
2022/07/02 12:17:33;;;;;;;1.25;0.90;;;;;;;;;;5011012;28;20369;-62
2022/07/02 12:19:59;;;;;;;0.80;0.80;;;;;;;;;;5010869;28;20028;-62
2022/07/02 12:22:26;;;;;;;0.73;0.50;;;;;;;;;;5010552;28;20059;-61
2022/07/02 12:24:54;;;;;;;0.85;0.70;;;;;;;;;;5010223;28;20478;-62
2022/07/02 12:27:23;;;;;;;1.00;0.90;;;;;;;;;;5011710;28;20029;-61
2022/07/02 12:29:56;;;;;;;1.05;0.70;;;;;;;;;;5010709;28;20415;-61
2022/07/02 12:32:32;;;;;;;0.60;0.60;;;;;;;;;;5011947;28;21509;-61
2022/07/02 12:35:03;;;;;;;0.73;0.73;;;;;;;;;;5012197;28;20419;-64
2022/07/02 12:37:30;;;;;;;1.92;0.70;;;;;;;;;;5010515;28;20423;-62
2022/07/02 12:40:04;;;;;;;0.52;0.52;;;;;;;;;;5010802;28;20512;-61
2022/07/02 12:42:34;;;;;;;1.70;0.70;;;;;;;;;;5009909;28;20470;-61
2022/07/02 12:45:03;;;;;;;2.08;1.17;;;;;;;;;;5010255;28;20434;-61
2022/07/02 12:47:32;;;;;;;0.90;0.70;;;;;;;;;;5009862;28;20443;-61
2022/07/02 12:50:10;;;;;;;1.30;0.70;;;;;;;;;;5010162;28;20381;-62
2022/07/02 12:52:49;;;;;;;1.40;0.77;;;;;;;;;;5010284;28;20330;-61
2022/07/02 12:55:22;;;;;;;1.00;0.73;;;;;;;;;;5010071;28;20458;-61
2022/07/02 12:57:47;;;;;;;0.82;0.68;;;;;;;;;;5011416;28;20119;-65
2022/07/02 13:00:13;;;;;;;1.23;0.80;;;;;;;;;;5010444;28;20435;-62
2022/07/02 13:02:38;;;;;;;1.08;0.73;;;;;;;;;;5009816;28;20343;-61
2022/07/02 13:05:04;;;;;;;1.13;0.80;;;;;;;;;;5010754;28;20318;-64
2022/07/02 13:07:30;;;;;;;1.20;0.65;;;;;;;;;;5010205;28;20086;-62
2022/07/02 13:09:55;;;;;;;0.70;0.70;;;;;;;;;;4992779;28;20432;-61
2022/07/02 13:12:21;;;;;;;1.10;0.77;;;;;;;;;;5010628;28;20339;-62
2022/07/02 13:14:46;;;;;;;0.63;0.60;;;;;;;;;;5010189;28;20043;-61
2022/07/02 13:17:15;;;;;;;0.70;0.60;;;;;;;;;;5009740;28;20393;-61
2022/07/02 13:19:42;;;;;;;;;;;;;;;;;;5011573;28;20411;-62
2022/07/02 13:22:09;;;;;;;0.98;0.70;;;;;;;;;;5009284;28;20290;-62
2022/07/02 13:24:34;;;;;;;0.93;0.60;;;;;;;;;;5009178;28;20588;-61
2022/07/02 13:27:00;;;;;;;0.75;0.73;;;;;;;;;;5009422;28;20311;-61
2022/07/02 13:29:25;;;;;;;0.60;0.60;;;;;;;;;;5009598;28;20398;-63
2022/07/02 13:31:51;;;;;;;1.13;0.60;;;;;;;;;;5010989;28;20417;-61
2022/07/02 13:34:17;;;;;;;0.57;0.57;;;;;;;;;;4990871;28;20351;-61
2022/07/02 13:36:42;;;;;;;0.90;0.70;;;;;;;;;;5008911;28;20335;-62
2022/07/02 13:39:08;;;;;;;0.93;0.60;;;;;;;;;;5009113;28;20366;-62
2022/07/02 13:41:33;;;;;;;1.25;0.52;;;;;;;;;;5009161;28;20427;-62
2022/07/02 13:43:58;;;;;;;1.80;0.70;;;;;;;;;;5009116;28;20297;-62
2022/07/02 13:46:24;;;;;;;0.93;0.80;;;;;;;;;;4996353;28;20381;-61
2022/07/02 13:48:49;;;;;;;1.00;0.80;;;;;;;;;;5009568;28;20435;-62
2022/07/02 13:51:15;;;;;;;1.67;1.02;;;;;;;;;;5009543;28;20051;-62
2022/07/02 13:53:40;;;;;;;0.57;0.52;;;;;;;;;;4990757;28;20357;-61
2022/07/02 13:56:06;;;;;;;0.80;0.57;;;;;;;;;;5010814;28;20488;-61
2022/07/02 13:58:31;;;;;;;0.90;0.60;;;;;;;;;;5008734;28;20481;-62
2022/07/02 14:00:57;;;;;;;0.98;0.80;;;;;;;;;;5009035;28;20451;-62
2022/07/02 14:03:22;;;;;;;0.50;0.50;;;;;;;;;;5008804;28;20378;-62
2022/07/02 14:05:47;;;;;;;1.48;0.68;;;;;;;;;;4991065;28;20462;-62
2022/07/02 14:08:13;;;;;;;1.58;0.80;;;;;;;;;;5008604;28;20508;-62
2022/07/02 14:10:39;;;;;;;0.47;0.47;;;;;;;;;;5009464;28;20466;-63
2022/07/02 14:13:05;;;;;;;0.75;0.70;;;;;;;;;;5009352;28;20409;-62
2022/07/02 14:15:30;;;;;;;1.00;0.75;;;;;;;;;;5010008;28;20454;-62
2022/07/02 14:17:56;;;;;;;1.25;0.65;;;;;;;;;;5008617;28;20430;-62
2022/07/02 14:20:21;;;;;;;0.50;0.50;;;;;;;;;;5009528;28;20487;-63
2022/07/02 14:22:47;;;;;;;0.52;0.52;;;;;;;;;;5008819;28;20507;-61
2022/07/02 14:25:12;;;;;;;1.48;0.60;;;;;;;;;;4986721;28;20041;-62
2022/07/02 14:27:38;;;;;;;1.00;0.80;;;;;;;;;;4989306;28;20388;-62
2022/07/02 14:30:03;;;;;;;0.60;0.60;;;;;;;;;;5005075;28;20446;-62
2022/07/02 14:32:29;;;;;;;1.30;0.88;;;;;;;;;;4988691;28;20378;-62
2022/07/02 14:34:55;;;;;;;0.90;0.63;;;;;;;;;;4990079;28;20392;-62
2022/07/02 14:37:22;;;;;;;0.80;0.80;;;;;;;;;;4988195;28;20455;-62
2022/07/02 14:39:47;;;;;;;1.95;0.80;;;;;;;;;;4989246;28;20412;-62
2022/07/02 14:42:13;;;;;;;1.13;0.77;;;;;;;;;;4988518;28;20432;-62
2022/07/02 14:44:38;;;;;;;1.48;0.57;;;;;;;;;;4989151;28;20382;-62
2022/07/02 14:47:04;;;;;;;0.65;0.65;;;;;;;;;;4988588;28;20471;-62
2022/07/02 14:49:30;;;;;;;0.60;0.60;;;;;;;;;;4988865;28;20029;-62
2022/07/02 14:51:56;;;;;;;1.25;0.82;;;;;;;;;;4988733;28;20435;-62